Time;durP1;ratioP1;P1;durP2;ratioP2;P2;SDS_P1;SDS_P2;PMS_P1;PMS_P2;Temp;Humidity;BMP_temperature;BMP_pressure;BME280_temperature;BME280_humidity;BME280_pressure;Samples;Min_cycle;Max_cycle;Signal;HPM_P1;HPM_P2
2022/03/02 00:01:02;;;;;;;;;51.50;41.00;;;;;11.22;47.06;102056.69;5081528;27;45371;-62
2022/03/02 00:03:28;;;;;;;;;44.50;35.25;;;;;11.22;47.26;102062.84;5081281;28;45258;-62
2022/03/02 00:05:53;;;;;;;;;58.25;43.50;;;;;11.21;47.32;102060.25;5081331;28;45315;-62
2022/03/02 00:08:20;;;;;;;;;58.75;44.50;;;;;11.20;47.25;102056.75;5081400;28;45238;-62
2022/03/02 00:10:45;;;;;;;;;58.50;44.25;;;;;11.18;47.41;102051.53;5081586;28;45576;-62
2022/03/02 00:13:11;;;;;;;;;55.25;40.75;;;;;11.15;47.96;102046.41;5081168;28;46101;-62
2022/03/02 00:15:36;;;;;;;;;54.50;42.75;;;;;11.14;47.75;102041.19;5081334;28;45331;-62
2022/03/02 00:18:01;;;;;;;;;57.75;45.00;;;;;11.13;47.88;102045.59;5081274;28;45208;-62
2022/03/02 00:20:27;;;;;;;;;54.75;41.75;;;;;11.11;47.55;102042.16;5081230;27;45490;-62
2022/03/02 00:22:53;;;;;;;;;52.00;41.25;;;;;11.10;47.52;102044.88;5081008;27;46211;-62
2022/03/02 00:25:22;;;;;;;;;54.50;37.75;;;;;11.08;47.49;102037.03;5081052;28;45393;-62
2022/03/02 00:27:47;;;;;;;;;57.50;42.25;;;;;11.05;47.99;102031.84;5081123;28;45272;-62
2022/03/02 00:30:13;;;;;;;;;50.00;39.00;;;;;11.00;47.77;102033.84;5081204;28;45209;-62
2022/03/02 00:32:39;;;;;;;;;50.50;40.00;;;;;10.96;48.01;102032.22;5080742;28;45314;-62
2022/03/02 00:35:05;;;;;;;;;56.75;46.25;;;;;10.93;48.06;102026.25;5089812;27;45351;-62
2022/03/02 00:37:31;;;;;;;;;44.75;34.75;;;;;10.87;47.65;102022.06;5080924;28;45174;-62
2022/03/02 00:39:57;;;;;;;;;54.25;41.25;;;;;10.83;48.29;102020.47;5084136;27;45692;-62
2022/03/02 00:42:22;;;;;;;;;48.75;40.25;;;;;10.80;48.47;102023.22;5097897;27;45488;-62
2022/03/02 00:44:49;;;;;;;;;49.50;39.25;;;;;10.80;48.21;102020.59;5080879;28;45260;-61
2022/03/02 00:47:14;;;;;;;;;55.50;41.50;;;;;10.78;48.49;102019.78;5080729;28;45457;-62
2022/03/02 00:49:40;;;;;;;;;47.25;40.00;;;;;10.75;48.72;102020.78;5080841;27;45561;-62
2022/03/02 00:52:09;;;;;;;;;57.50;42.25;;;;;10.71;48.50;102019.16;5080931;28;45457;-62
2022/03/02 00:54:34;;;;;;;;;57.50;43.00;;;;;10.70;48.72;102021.88;5080726;28;45253;-61
2022/03/02 00:57:00;;;;;;;;;51.25;39.00;;;;;10.68;48.75;102021.09;5080882;28;45299;-62
2022/03/02 00:59:26;;;;;;;;;54.00;43.00;;;;;10.66;49.17;102021.13;5080830;28;45311;-61
2022/03/02 01:01:51;;;;;;;;;64.75;43.00;;;;;10.63;49.44;102027.38;5080314;28;46082;-61
2022/03/02 01:04:18;;;;;;;;;53.00;40.25;;;;;10.58;49.00;102018.78;5080408;27;45334;-62
2022/03/02 01:06:43;;;;;;;;;58.75;43.75;;;;;10.54;49.49;102018.97;5062417;28;45354;-62
2022/03/02 01:09:09;;;;;;;;;53.00;38.75;;;;;10.50;49.36;102015.59;5081947;28;45501;-61
2022/03/02 01:11:34;;;;;;;;;55.50;40.75;;;;;10.47;49.78;102009.59;5083839;27;45370;-61
2022/03/02 01:14:00;;;;;;;;;59.25;43.00;;;;;10.43;49.29;102008.88;5084195;28;45248;-61
2022/03/02 01:16:26;;;;;;;;;50.25;35.50;;;;;10.38;49.50;102008.16;5083879;28;45277;-61
2022/03/02 01:18:51;;;;;;;;;57.25;47.50;;;;;10.38;49.86;102013.44;5083875;27;45523;-61
2022/03/02 01:21:17;;;;;;;;;53.25;39.50;;;;;10.38;49.35;102008.16;5083702;27;45972;-61
2022/03/02 01:23:42;;;;;;;;;56.50;44.25;;;;;10.40;50.01;102003.69;5083962;28;45243;-61
2022/03/02 01:26:08;;;;;;;;;53.75;43.75;;;;;10.43;49.30;102005.38;5083959;27;45284;-62
2022/03/02 01:28:33;;;;;;;;;54.00;44.50;;;;;10.43;49.92;102003.59;5084044;27;45200;-62
2022/03/02 01:30:59;;;;;;;;;56.75;44.75;;;;;10.46;49.67;102002.59;5083485;27;46100;-62
2022/03/02 01:33:24;;;;;;;;;57.25;47.00;;;;;10.45;49.38;102000.91;5086160;27;45517;-62
2022/03/02 01:35:50;;;;;;;;;53.50;43.50;;;;;10.46;49.78;101997.34;5089468;27;45213;-62
2022/03/02 01:38:15;;;;;;;;;58.00;44.25;;;;;10.47;49.77;102007.81;5084076;28;45449;-62
2022/03/02 01:40:41;;;;;;;;;52.50;41.00;;;;;10.47;49.16;101996.41;5089905;27;45891;-61
2022/03/02 01:43:07;;;;;;;;;53.25;41.75;;;;;10.46;49.79;101990.28;5096937;27;45227;-62
2022/03/02 01:45:33;;;;;;;;;56.75;43.00;;;;;10.48;49.23;101988.44;5083653;28;45504;-62
2022/03/02 01:48:00;;;;;;;;;53.75;43.25;;;;;10.46;49.22;101982.38;5083612;27;45323;-61
2022/03/02 01:50:26;;;;;;;;;54.00;43.75;;;;;10.45;49.61;101983.31;5083183;27;46420;-62
2022/03/02 01:52:52;;;;;;;;;61.50;46.25;;;;;10.44;49.31;101981.59;5083527;27;45389;-62
2022/03/02 01:55:17;;;;;;;;;56.50;40.00;;;;;10.43;49.31;101985.16;5083417;27;45474;-62
2022/03/02 01:57:43;;;;;;;;;54.50;42.00;;;;;10.44;49.62;101976.31;5083775;27;45223;-61
2022/03/02 02:00:12;;;;;;;;;46.50;39.25;;;;;10.46;49.68;101976.25;5083254;27;45423;-61
2022/03/02 02:02:40;;;;;;;;;61.25;45.50;;;;;10.45;49.14;101969.28;5083189;28;45346;-62
2022/03/02 02:05:06;;;;;;;;;51.75;40.75;;;;;10.44;49.77;101972.84;5078335;27;45352;-61
2022/03/02 02:07:32;;;;;;;;;54.25;42.00;;;;;10.41;49.63;101968.53;5083645;27;45276;-62
2022/03/02 02:09:59;;;;;;;;;55.75;40.50;;;;;10.40;49.88;101968.59;5083027;27;46174;-62
2022/03/02 02:12:25;;;;;;;;;59.75;42.25;;;;;10.40;49.65;101965.97;5083124;28;45288;-62
2022/03/02 02:14:50;;;;;;;;;56.75;45.25;;;;;10.41;49.46;101965.88;5083351;28;45323;-62
2022/03/02 02:17:16;;;;;;;;;56.25;44.50;;;;;10.42;49.88;101961.47;5083238;28;45439;-62
2022/03/02 02:19:41;;;;;;;;;57.75;45.25;;;;;10.42;49.93;101957.06;5082139;28;45410;-62
2022/03/02 02:22:07;;;;;;;;;55.00;41.75;;;;;10.42;49.82;101957.06;5082382;27;45249;-62
2022/03/02 02:24:32;;;;;;;;;56.50;42.25;;;;;10.40;49.30;101953.66;5083004;27;45311;-62
2022/03/02 02:26:58;;;;;;;;;48.50;38.25;;;;;10.38;49.65;101947.59;5083369;28;45295;-62
2022/03/02 02:29:25;;;;;;;;;48.75;40.75;;;;;10.37;49.99;101945.03;5082631;27;45407;-62
2022/03/02 02:31:52;;;;;;;;;55.25;42.50;;;;;10.35;49.48;101945.09;5082899;28;45361;-62
2022/03/02 02:34:17;;;;;;;;;53.25;43.00;;;;;10.33;50.02;101936.34;5091529;27;45288;-62
2022/03/02 02:36:43;;;;;;;;;54.50;43.00;;;;;10.29;49.64;101933.00;5083129;27;45539;-62
2022/03/02 02:39:10;;;;;;;;;56.00;42.75;;;;;10.29;50.16;101940.03;5085558;27;45483;-62
2022/03/02 02:41:35;;;;;;;;;55.75;42.00;;;;;10.25;50.08;101935.81;5094357;27;45320;-62
2022/03/02 02:44:01;;;;;;;;;54.75;42.00;;;;;10.25;50.15;101936.66;5088332;27;45234;-62
2022/03/02 02:46:27;;;;;;;;;55.50;42.00;;;;;10.26;50.15;101934.88;5082859;27;45529;-62
2022/03/02 02:48:52;;;;;;;;;47.25;38.00;;;;;10.25;49.99;101925.28;5082026;27;46218;-62
2022/03/02 02:51:18;;;;;;;;;53.25;41.50;;;;;10.24;49.79;101920.91;5072429;27;45313;-62
2022/03/02 02:53:44;;;;;;;;;48.00;39.00;;;;;10.22;50.12;101909.56;5088322;27;45418;-62
2022/03/02 02:56:10;;;;;;;;;46.25;36.25;;;;;10.13;49.80;101909.94;5082893;27;45449;-62
2022/03/02 02:58:35;;;;;;;;;47.25;38.00;;;;;10.08;49.91;101903.06;5077609;27;45727;-62
2022/03/02 03:01:02;;;;;;;;;54.50;40.25;;;;;10.03;49.90;101897.13;5082454;28;45391;-62
2022/03/02 03:03:27;;;;;;;;;50.25;40.75;;;;;9.99;49.84;101894.66;5082213;27;45308;-62
2022/03/02 03:05:53;;;;;;;;;54.00;42.00;;;;;9.93;50.32;101893.09;5082617;27;45429;-63
2022/03/02 03:08:18;;;;;;;;;55.50;41.75;;;;;9.88;50.35;101896.84;5082232;27;45968;-62
2022/03/02 03:10:45;;;;;;;;;56.00;41.75;;;;;9.85;50.14;101894.31;5082388;28;45264;-62
2022/03/02 03:13:12;;;;;;;;;52.50;41.25;;;;;9.81;50.34;101890.09;5082251;27;45241;-62
2022/03/02 03:15:38;;;;;;;;;58.00;41.00;;;;;9.79;50.44;101890.13;5082313;28;45351;-62
2022/03/02 03:18:05;;;;;;;;;50.50;39.00;;;;;9.77;50.58;101891.97;5081959;27;45981;-62
2022/03/02 03:20:31;;;;;;;;;50.50;40.00;;;;;9.73;50.59;101888.59;5081954;28;45312;-62
2022/03/02 03:22:58;;;;;;;;;57.75;40.00;;;;;9.72;50.60;101883.41;5082167;27;45520;-62
2022/03/02 03:25:25;;;;;;;;;52.50;40.00;;;;;9.70;50.20;101887.84;5082562;28;45244;-62
2022/03/02 03:27:51;;;;;;;;;45.50;36.25;;;;;9.69;50.55;101892.25;5081850;27;45334;-62
2022/03/02 03:30:19;;;;;;;;;48.50;38.25;;;;;9.67;50.06;101891.47;5082120;28;45173;-62
2022/03/02 03:32:45;;;;;;;;;52.25;41.50;;;;;9.64;50.47;101886.31;5081533;28;45403;-62
2022/03/02 03:35:12;;;;;;;;;49.00;39.00;;;;;9.65;50.38;101889.81;5090406;27;45430;-62
2022/03/02 03:37:39;;;;;;;;;45.50;37.75;;;;;9.62;50.54;101885.50;5081598;28;45481;-62
2022/03/02 03:40:06;;;;;;;;;46.50;37.50;;;;;9.62;50.61;101884.66;5084638;27;45312;-62
2022/03/02 03:42:32;;;;;;;;;50.25;39.50;;;;;9.59;50.72;101884.78;5098710;27;45474;-62
2022/03/02 03:44:57;;;;;;;;;52.50;41.25;;;;;9.56;50.27;101879.59;5082164;28;45327;-62
2022/03/02 03:47:23;;;;;;;;;53.25;38.00;;;;;9.52;50.78;101885.00;5081179;27;45780;-62
2022/03/02 03:49:48;;;;;;;;;46.50;37.00;;;;;9.53;50.84;101880.59;5081639;28;45346;-62
2022/03/02 03:52:14;;;;;;;;;57.50;43.50;;;;;9.51;50.74;101882.41;5081883;27;45332;-62
2022/03/02 03:54:40;;;;;;;;;53.25;40.00;;;;;9.48;50.56;101875.50;5081759;28;45312;-62
2022/03/02 03:57:06;;;;;;;;;58.50;41.50;;;;;9.47;50.90;101878.16;5076995;27;46341;-62
2022/03/02 03:59:32;;;;;;;;;52.75;42.25;;;;;9.45;51.05;101872.97;5081604;27;45314;-62
2022/03/02 04:01:59;;;;;;;;;45.00;39.25;;;;;9.44;50.96;101867.78;5081572;28;45169;-62
2022/03/02 04:04:25;;;;;;;;;50.00;37.75;;;;;9.41;51.12;101871.38;5081484;28;45465;-62
2022/03/02 04:06:50;;;;;;;;;51.00;42.00;;;;;9.40;51.09;101863.53;5081368;28;45272;-62
2022/03/02 04:09:16;;;;;;;;;51.00;40.75;;;;;9.36;51.24;101862.78;5081502;28;45217;-62
2022/03/02 04:11:41;;;;;;;;;51.50;40.00;;;;;9.35;51.05;101873.38;5081570;28;45293;-62
2022/03/02 04:14:08;;;;;;;;;54.50;41.00;;;;;9.33;51.43;101867.31;5081532;28;45544;-62
2022/03/02 04:16:34;;;;;;;;;53.75;41.75;;;;;9.30;51.47;101873.53;5081014;28;46494;-62
2022/03/02 04:18:59;;;;;;;;;45.75;38.50;;;;;9.29;51.69;101871.81;5081392;28;45302;-62
2022/03/02 04:21:25;;;;;;;;;54.50;43.50;;;;;9.28;51.92;101872.72;5081164;27;45356;-62
2022/03/02 04:23:50;;;;;;;;;55.75;40.50;;;;;9.28;51.34;101869.25;5081375;28;45321;-62
2022/03/02 04:26:16;;;;;;;;;55.00;41.75;;;;;9.28;51.70;101867.47;5081047;28;45421;-62
2022/03/02 04:28:41;;;;;;;;;53.00;40.75;;;;;9.26;51.68;101861.41;5081190;28;45393;-62
2022/03/02 04:31:07;;;;;;;;;57.25;43.00;;;;;9.26;51.50;101858.78;5076468;27;45250;-62
2022/03/02 04:33:33;;;;;;;;;53.50;40.25;;;;;9.27;51.74;101852.59;5084791;27;45256;-62
2022/03/02 04:35:58;;;;;;;;;54.00;45.50;;;;;9.29;51.82;101852.56;5086396;27;46255;-62
2022/03/02 04:38:24;;;;;;;;;61.00;43.50;;;;;9.26;51.88;101844.78;5081257;28;45256;-63
2022/03/02 04:40:50;;;;;;;;;54.50;43.25;;;;;9.24;51.94;101855.34;5089656;27;45248;-62
2022/03/02 04:43:17;;;;;;;;;52.25;42.75;;;;;9.23;51.69;101843.97;5093162;27;45457;-62
2022/03/02 04:45:43;;;;;;;;;54.50;40.50;;;;;9.26;51.82;101837.75;5084212;27;45288;-62
2022/03/02 04:48:09;;;;;;;;;58.25;41.00;;;;;9.26;52.11;101847.41;5084624;27;45348;-62
2022/03/02 04:50:35;;;;;;;;;54.50;41.50;;;;;9.23;52.01;101836.06;5084358;27;45330;-62
2022/03/02 04:53:01;;;;;;;;;52.25;39.50;;;;;9.23;52.21;101830.81;5084764;27;45336;-62
2022/03/02 04:55:26;;;;;;;;;56.00;42.75;;;;;9.22;52.03;101830.88;5084248;28;45435;-62
2022/03/02 04:57:55;;;;;;;;;55.00;41.25;;;;;9.21;51.90;101834.41;5084447;27;45307;-62
2022/03/02 05:00:26;;;;;;;;;44.50;39.00;;;;;9.21;52.00;101837.91;5084432;27;45359;-62
2022/03/02 05:02:52;;;;;;;;;52.00;40.00;;;;;9.20;51.94;101836.19;5084512;27;45351;-62
2022/03/02 05:05:21;;;;;;;;;52.50;40.75;;;;;9.20;52.33;101835.34;5083903;27;45262;-62
2022/03/02 05:07:47;;;;;;;;;52.25;42.25;;;;;9.19;52.14;101839.75;5084269;27;45311;-62
2022/03/02 05:10:14;;;;;;;;;55.00;42.50;;;;;9.19;52.17;101838.88;5066050;28;45355;-62
2022/03/02 05:12:40;;;;;;;;;55.00;42.00;;;;;9.17;51.99;101830.19;5084271;27;45384;-62
2022/03/02 05:15:07;;;;;;;;;50.50;42.25;;;;;9.16;52.13;101826.72;5083910;27;45448;-62
2022/03/02 05:17:35;;;;;;;;;50.25;39.50;;;;;9.13;51.90;101823.31;5083939;27;45223;-62
2022/03/02 05:20:00;;;;;;;;;54.00;43.00;;;;;9.09;52.00;101830.47;5083901;27;45243;-62
2022/03/02 05:22:26;;;;;;;;;50.25;42.50;;;;;9.09;52.10;101832.25;5084356;27;45212;-62
2022/03/02 05:24:51;;;;;;;;;55.50;40.25;;;;;9.09;51.87;101821.72;5083243;27;47696;-62
2022/03/02 05:27:17;;;;;;;;;55.00;42.75;;;;;9.08;51.91;101823.47;5093802;27;45245;-63
2022/03/02 05:29:42;;;;;;;;;52.75;42.25;;;;;9.11;52.27;101819.91;5083851;27;45341;-62
2022/03/02 05:32:08;;;;;;;;;59.00;43.25;;;;;9.12;52.04;101806.69;5084148;27;45248;-62
2022/03/02 05:34:34;;;;;;;;;54.00;40.25;;;;;9.13;51.60;101807.56;5092456;27;46055;-62
2022/03/02 05:36:59;;;;;;;;;56.50;44.00;;;;;9.12;51.92;101809.31;5083918;28;45460;-62
2022/03/02 05:39:25;;;;;;;;;47.50;38.75;;;;;9.11;51.95;101804.97;5086993;27;45404;-62
2022/03/02 05:41:51;;;;;;;;;51.25;39.75;;;;;9.11;51.67;101810.25;5097657;27;45488;-62
2022/03/02 05:44:16;;;;;;;;;50.25;39.75;;;;;9.10;51.60;101807.69;5086702;27;45333;-62
2022/03/02 05:46:42;;;;;;;;;50.50;40.00;;;;;9.09;51.70;101804.19;5083550;27;45251;-62
2022/03/02 05:49:08;;;;;;;;;55.00;41.25;;;;;9.10;51.89;101805.03;5083253;28;45291;-62
2022/03/02 05:51:34;;;;;;;;;61.50;43.00;;;;;9.11;52.00;101806.75;5083945;28;45290;-62
2022/03/02 05:54:00;;;;;;;;;54.25;43.75;;;;;9.13;51.58;101811.03;5083156;28;45263;-62
2022/03/02 05:56:25;;;;;;;;;51.25;37.50;;;;;9.13;51.96;101808.41;5083518;28;45284;-62
2022/03/02 05:58:52;;;;;;;;;57.75;41.75;;;;;9.11;51.85;101804.97;5083566;27;45233;-62
2022/03/02 06:01:18;;;;;;;;;58.25;42.75;;;;;9.11;51.64;101802.34;5083324;27;45457;-62
2022/03/02 06:03:44;;;;;;;;;57.50;42.75;;;;;9.12;51.55;101804.06;5082985;28;46585;-62
2022/03/02 06:06:10;;;;;;;;;55.25;43.50;;;;;9.10;51.68;101805.03;5083349;27;45383;-62
2022/03/02 06:08:36;;;;;;;;;47.50;38.00;;;;;9.09;51.58;101804.19;5083454;28;45351;-62
2022/03/02 06:11:02;;;;;;;;;51.00;40.00;;;;;9.08;51.46;101806.84;5083339;28;45296;-62
2022/03/02 06:13:28;;;;;;;;;49.50;38.50;;;;;9.08;51.59;101804.22;5082960;27;46035;-62
2022/03/02 06:15:53;;;;;;;;;53.00;38.75;;;;;9.07;51.71;101805.13;5083086;28;45806;-63
2022/03/02 06:18:19;;;;;;;;;58.25;43.50;;;;;9.07;51.46;101806.00;5083049;27;45267;-62
2022/03/02 06:20:49;;;;;;;;;55.50;42.75;;;;;9.09;51.78;101805.97;5083195;28;45375;-62
2022/03/02 06:23:15;;;;;;;;;55.00;40.75;;;;;9.13;51.55;101803.16;5082912;27;45418;-62
2022/03/02 06:25:41;;;;;;;;;51.50;39.50;;;;;9.15;51.88;101796.06;5064735;28;45390;-62
2022/03/02 06:28:06;;;;;;;;;52.25;40.00;;;;;9.18;51.53;101798.59;5082893;27;45475;-62
2022/03/02 06:30:32;;;;;;;;;61.25;43.25;;;;;9.22;51.57;101794.06;5083023;28;45447;-62
2022/03/02 06:32:58;;;;;;;;;46.00;34.50;;;;;9.22;51.22;101797.56;5082645;28;45245;-62
2022/03/02 06:35:24;;;;;;;;;57.25;42.50;;;;;9.25;51.05;101806.25;5092420;27;45841;-62
2022/03/02 06:37:50;;;;;;;;;49.50;39.25;;;;;9.26;51.19;101800.94;5082864;27;45359;-62
2022/03/02 06:40:16;;;;;;;;;52.25;43.00;;;;;9.26;51.07;101803.56;5086978;27;45246;-62
2022/03/02 06:42:59;;;;;;;;;54.25;42.25;;;;;9.28;51.02;101798.25;5099097;27;46037;-63
2022/03/02 06:45:43;;;;;;;;;51.75;39.50;;;;;9.29;50.78;101805.22;5082697;27;45430;-63
2022/03/02 06:48:36;;;;;;;;;50.00;39.00;;;;;9.29;51.16;101813.09;5091163;27;45288;-63
2022/03/02 06:51:02;;;;;;;;;47.75;38.75;;;;;9.29;50.65;101808.72;5084948;27;46280;-63
2022/03/02 06:53:36;;;;;;;;;58.75;44.00;;;;;9.28;51.04;101808.78;5102713;27;45336;-63
2022/03/02 06:56:08;;;;;;;;;39.00;36.50;;;;;9.28;50.73;101814.88;5102802;27;45450;-63
2022/03/02 06:58:45;;;;;;;;;55.75;44.00;;;;;9.28;50.77;101811.41;5102901;27;45317;-63
2022/03/02 07:01:13;;;;;;;;;50.00;39.75;;;;;9.26;51.03;101814.09;5102886;27;45561;-63
2022/03/02 07:03:49;;;;;;;;;58.25;43.50;;;;;9.24;51.10;101818.53;5070337;27;45622;-63
2022/03/02 07:06:15;;;;;;;;;59.75;42.00;;;;;9.25;50.97;101816.78;5101829;27;45348;-63
2022/03/02 07:08:44;;;;;;;;;59.00;40.00;;;;;9.26;51.08;101815.88;5102714;27;45441;-63
2022/03/02 07:11:10;;;;;;;;;49.75;39.00;;;;;9.22;50.59;101805.44;5102687;27;45270;-63
2022/03/02 07:13:36;;;;;;;;;56.50;41.00;;;;;9.23;50.92;101812.41;5102214;27;45402;-63
2022/03/02 07:16:02;;;;;;;;;47.50;37.00;;;;;9.28;50.84;101814.03;5102519;27;45348;-63
2022/03/02 07:18:27;;;;;;;;;50.00;40.25;;;;;9.29;50.93;101813.09;5102503;27;45342;-63
2022/03/02 07:20:56;;;;;;;;;48.25;41.00;;;;;9.31;50.84;101819.16;5102600;27;45422;-63
2022/03/02 07:23:24;;;;;;;;;50.00;40.00;;;;;9.33;50.69;101815.59;5102357;27;46087;-63
2022/03/02 07:25:54;;;;;;;;;56.25;43.75;;;;;9.37;50.44;101811.91;5102363;27;45350;-63
2022/03/02 07:28:20;;;;;;;;;54.00;40.00;;;;;9.39;50.48;101815.34;5102467;27;45421;-63
2022/03/02 07:30:46;;;;;;;;;48.75;38.50;;;;;9.43;50.08;101816.09;5102298;27;45515;-63
2022/03/02 07:33:14;;;;;;;;;50.00;38.75;;;;;9.47;50.54;101810.63;5101580;27;45448;-63
2022/03/02 07:35:40;;;;;;;;;51.75;39.75;;;;;9.55;50.44;101814.75;5089603;27;45406;-63
2022/03/02 07:38:07;;;;;;;;;53.50;41.25;;;;;9.62;49.84;101821.50;5081817;27;45509;-63
2022/03/02 07:40:34;;;;;;;;;47.25;39.25;;;;;9.63;49.19;101813.56;5087686;27;45549;-63
2022/03/02 07:43:00;;;;;;;;;47.25;38.50;;;;;9.65;49.37;101810.88;5095649;27;45310;-63
2022/03/02 07:45:26;;;;;;;;;48.50;38.75;;;;;9.69;49.03;101817.72;5081643;28;45231;-63
2022/03/02 07:47:51;;;;;;;;;51.50;37.75;;;;;9.74;48.95;101810.53;5081329;27;45332;-63
2022/03/02 07:50:17;;;;;;;;;50.00;40.75;;;;;9.75;48.71;101809.59;5081306;28;45239;-63
2022/03/02 07:52:49;;;;;;;;;49.75;39.50;;;;;9.76;48.73;101806.91;5081159;28;45409;-63
2022/03/02 07:55:17;;;;;;;;;53.50;40.25;;;;;9.79;48.79;101806.81;5081444;28;45256;-63
2022/03/02 07:57:44;;;;;;;;;56.25;40.00;;;;;9.87;49.08;101803.00;5081725;28;45435;-63
2022/03/02 08:00:11;;;;;;;;;56.50;41.00;;;;;9.96;48.78;101800.03;5081624;28;45276;-63
2022/03/02 08:02:40;;;;;;;;;58.75;44.00;;;;;10.04;48.50;101808.47;5088194;27;45489;-63
2022/03/02 08:05:06;;;;;;;;;55.25;39.75;;;;;10.12;48.26;101805.53;5101535;27;45259;-63
2022/03/02 08:07:31;;;;;;;;;51.50;40.25;;;;;10.16;47.95;101809.75;5102101;27;45299;-63
2022/03/02 08:09:58;;;;;;;;;50.50;38.75;;;;;10.21;47.91;101806.00;5101745;27;45218;-63
2022/03/02 08:12:24;;;;;;;;;57.00;39.50;;;;;10.20;48.48;101806.94;5101786;27;45354;-63
2022/03/02 08:14:51;;;;;;;;;58.75;46.00;;;;;10.25;48.30;101809.41;5101588;27;45277;-63
2022/03/02 08:17:18;;;;;;;;;48.50;38.50;;;;;10.34;47.90;101812.50;5101943;27;45409;-63
2022/03/02 08:19:46;;;;;;;;;58.00;40.50;;;;;10.44;47.93;101807.75;5100116;27;45178;-63
2022/03/02 08:22:19;;;;;;;;;53.25;42.00;;;;;10.50;47.73;101815.38;5101514;27;45267;-63
2022/03/02 08:24:52;;;;;;;;;50.75;38.00;;;;;10.53;47.30;101804.72;5101411;27;45325;-63
2022/03/02 08:27:19;;;;;;;;;59.50;41.25;;;;;10.61;47.80;101807.03;5101694;27;45304;-63
2022/03/02 08:29:53;;;;;;;;;54.50;40.25;;;;;10.68;47.26;101805.84;5101506;27;45160;-64
2022/03/02 08:32:19;;;;;;;;;51.00;39.50;;;;;10.69;47.33;101804.94;5101143;27;45349;-63
2022/03/02 08:34:46;;;;;;;;;43.50;35.75;;;;;10.67;47.25;101805.94;5095878;27;45185;-63
2022/03/02 08:37:12;;;;;;;;;46.50;39.50;;;;;10.70;47.02;101808.41;5081075;27;45227;-63
2022/03/02 08:39:37;;;;;;;;;50.00;38.25;;;;;10.76;47.11;101803.75;5084171;27;45220;-63
2022/03/02 08:42:04;;;;;;;;;48.00;39.50;;;;;10.81;47.12;101807.00;5096461;27;45408;-63
2022/03/02 08:44:29;;;;;;;;;53.00;41.50;;;;;10.87;46.75;101806.75;5082077;27;45321;-63
2022/03/02 08:46:57;;;;;;;;;44.50;38.75;;;;;10.91;46.67;101807.50;5074371;27;45259;-63
2022/03/02 08:49:23;;;;;;;;;46.75;38.75;;;;;10.96;46.48;101810.78;5081427;27;46284;-63
2022/03/02 08:51:49;;;;;;;;;50.25;41.50;;;;;11.00;46.28;101809.72;5080506;28;45586;-63
2022/03/02 08:54:18;;;;;;;;;52.75;42.75;;;;;11.01;46.17;101814.06;5080331;28;45216;-63
2022/03/02 08:56:43;;;;;;;;;56.75;42.25;;;;;11.07;46.34;101805.06;5080637;28;45351;-63
2022/03/02 08:59:13;;;;;;;;;45.00;39.25;;;;;11.15;46.10;101818.75;5080740;27;45450;-63
2022/03/02 09:01:43;;;;;;;;;54.00;38.00;;;;;11.19;45.65;101812.41;5080282;28;46073;-63
2022/03/02 09:04:14;;;;;;;;;47.50;34.75;;;;;11.23;46.03;101802.59;5080547;28;45351;-63
2022/03/02 09:06:40;;;;;;;;;48.00;37.25;;;;;11.28;45.86;101798.78;5080448;28;45249;-63
2022/03/02 09:09:06;;;;;;;;;46.75;38.50;;;;;11.35;45.79;101794.09;5080612;28;45222;-63
2022/03/02 09:11:32;;;;;;;;;50.25;38.00;;;;;11.38;46.09;101791.34;5080345;28;46166;-63
2022/03/02 09:13:57;;;;;;;;;52.75;38.00;;;;;11.43;45.46;101787.53;5080474;28;45631;-63
2022/03/02 09:16:23;;;;;;;;;55.25;39.00;;;;;11.56;45.22;101790.47;5080393;27;45462;-63
2022/03/02 09:18:48;;;;;;;;;46.50;38.25;;;;;11.66;45.33;101788.25;5080655;28;45309;-63
2022/03/02 09:21:14;;;;;;;;;51.50;38.00;;;;;11.71;44.73;101783.63;5079851;28;45557;-63
2022/03/02 09:23:44;;;;;;;;;48.50;41.00;;;;;11.74;44.30;101773.78;5080245;28;45304;-63
2022/03/02 09:26:13;;;;;;;;;52.25;38.50;;;;;11.79;44.69;101778.84;5080432;28;45161;-63
2022/03/02 09:28:41;;;;;;;;;46.25;36.00;;;;;11.88;44.37;101769.66;5080744;28;45514;-63
2022/03/02 09:31:09;;;;;;;;;47.00;37.25;;;;;11.94;44.20;101772.88;5082668;28;45426;-63
2022/03/02 09:33:35;;;;;;;;;54.75;37.50;;;;;12.03;44.34;101771.56;5087539;27;45472;-63
2022/03/02 09:36:04;;;;;;;;;47.25;36.50;;;;;12.12;44.02;101779.03;5087469;27;45266;-63
2022/03/02 09:38:32;;;;;;;;;50.75;34.25;;;;;12.18;43.92;101773.44;5083675;28;45573;-63
2022/03/02 09:41:05;;;;;;;;;49.00;38.00;;;;;12.25;43.95;101772.22;5091842;27;45351;-63
2022/03/02 09:43:32;;;;;;;;;46.25;36.75;;;;;12.31;43.23;101773.69;5093173;27;45284;-63
2022/03/02 09:46:06;;;;;;;;;37.75;31.50;;;;;12.38;43.34;101779.50;5083560;27;45288;-63
2022/03/02 09:48:41;;;;;;;;;52.50;36.75;;;;;12.45;43.41;101773.84;5083157;27;45318;-63
2022/03/02 09:51:08;;;;;;;;;49.25;38.25;;;;;12.50;42.97;101778.91;5083274;28;46030;-63
2022/03/02 09:53:36;;;;;;;;;50.00;37.00;;;;;12.48;43.25;101781.63;5083402;28;45388;-63
2022/03/02 09:56:06;;;;;;;;;47.50;37.00;;;;;12.52;43.01;101784.97;5072522;27;45260;-62
2022/03/02 09:58:37;;;;;;;;;41.50;36.75;;;;;12.52;43.02;101777.88;5103965;27;45444;-62
2022/03/02 10:01:03;;;;;;;;;47.25;37.00;;;;;12.54;43.08;101780.44;5103769;27;45421;-62
2022/03/02 10:03:36;;;;;;;;;53.50;40.50;;;;;12.63;42.91;101782.63;5103416;27;45556;-63
2022/03/02 10:06:04;;;;;;;;;54.25;37.75;;;;;12.72;43.01;101776.88;5103895;27;45251;-63
2022/03/02 10:08:34;;;;;;;;;52.50;37.50;;;;;12.75;42.69;101776.72;5103506;27;45586;-62
2022/03/02 10:11:04;;;;;;;;;47.50;38.50;;;;;12.73;42.72;101783.03;5103582;27;45298;-62
2022/03/02 10:13:30;;;;;;;;;55.25;38.50;;;;;12.76;42.76;101767.00;5103257;27;45334;-62
2022/03/02 10:15:58;;;;;;;;;46.50;37.00;;;;;12.84;42.71;101770.09;5103798;27;45318;-62
2022/03/02 10:18:26;;;;;;;;;49.75;39.00;;;;;12.89;42.74;101768.06;5103314;27;45466;-62
2022/03/02 10:21:00;;;;;;;;;46.25;38.00;;;;;12.92;42.38;101770.53;5103369;27;46175;-62
2022/03/02 10:23:42;;;;;;;;;42.75;35.00;;;;;13.01;42.45;101764.75;5103227;27;45243;-63
2022/03/02 10:26:27;;;;;;;;;53.00;40.00;;;;;13.11;42.55;101755.41;5103547;27;45291;-63
2022/03/02 10:29:00;;;;;;;;;54.50;38.50;;;;;13.21;42.19;101752.31;5103650;27;45482;-62
2022/03/02 10:31:40;;;;;;;;;52.25;39.00;;;;;13.24;41.98;101752.97;5102992;27;45439;-62
2022/03/02 10:34:24;;;;;;;;;53.00;38.00;;;;;13.36;42.08;101746.19;5102697;27;45226;-65
2022/03/02 10:36:57;;;;;;;;;49.25;39.25;;;;;13.48;41.66;101750.78;5082827;27;45245;-63
2022/03/02 10:39:50;;;;;;;;;46.75;34.75;;;;;13.59;41.75;101752.88;5085665;27;45427;-63
2022/03/02 10:42:21;;;;;;;;;46.50;38.50;;;;;13.64;41.69;101741.06;5098688;27;45353;-62
2022/03/02 10:45:08;;;;;;;;;49.50;40.00;;;;;13.71;41.49;101744.22;5103317;27;45579;-63
2022/03/02 10:47:46;;;;;;;;;53.25;41.75;;;;;13.80;41.61;101737.53;5102623;27;45369;-63
2022/03/02 10:50:13;;;;;;;;;55.00;42.00;;;;;13.93;41.39;101733.25;5103192;27;45334;-62
2022/03/02 10:52:40;;;;;;;;;48.25;38.50;;;;;14.00;41.15;101731.97;5102568;27;46338;-62
2022/03/02 10:55:08;;;;;;;;;47.25;37.00;;;;;13.97;41.06;101730.34;5103065;27;45409;-62
2022/03/02 10:57:35;;;;;;;;;52.00;40.75;;;;;14.03;40.89;101728.28;5064703;28;45238;-62
2022/03/02 11:00:13;;;;;;;;;47.00;40.75;;;;;14.05;40.86;101729.03;5095452;27;45387;-63
2022/03/02 11:02:44;;;;;;;;;44.50;37.50;;;;;14.11;40.67;101718.94;5103002;27;45339;-62
2022/03/02 11:05:13;;;;;;;;;46.00;37.50;;;;;14.15;40.52;101727.59;5102538;27;45523;-63
2022/03/02 11:07:40;;;;;;;;;52.50;39.75;;;;;14.18;40.48;101720.28;5103103;27;45239;-63
2022/03/02 11:10:09;;;;;;;;;47.00;36.50;;;;;14.27;40.69;101723.34;5102710;27;45404;-62
2022/03/02 11:12:37;;;;;;;;;48.50;37.25;;;;;14.31;40.20;101723.09;5102289;27;45978;-63